Estación de Imperial Alto

Ultimos registro cada 15 minutos 73
Estación Fecha / Hora Temperatura Humedad Lluvia Velocidad Dirección Radiación Presion
73 Imperial Alto 03-05-2026 18:30 15,7 65 0 0 359 0 1013,1
72 Imperial Alto 03-05-2026 18:15 15,9 65 0 0 359 0 1013,2
71 Imperial Alto 03-05-2026 18:00 16,4 63 0 0 350 7 1013,1
70 Imperial Alto 03-05-2026 17:45 17,2 61 0 0 340 28 1013,2
69 Imperial Alto 03-05-2026 17:30 18 60 0 0,9 354 69 1013,2
68 Imperial Alto 03-05-2026 17:15 18,3 59 0 1,8 354 118 1013
67 Imperial Alto 03-05-2026 17:00 18,6 59 0 0,9 309 174 1012,9
66 Imperial Alto 03-05-2026 16:45 19,4 57 0 2,7 342 225 1012,9
65 Imperial Alto 03-05-2026 16:30 20,2 55 0 0,9 321 271 1012,9
64 Imperial Alto 03-05-2026 16:15 20,3 54 0 1,3 341 315 1012,8
63 Imperial Alto 03-05-2026 16:00 21 53 0 1,3 35 360 1012,7
62 Imperial Alto 03-05-2026 15:45 21,4 52 0 2,2 29 418 1012,4
61 Imperial Alto 03-05-2026 15:15 21,8 51 0 0,4 4 457 1012,6
60 Imperial Alto 03-05-2026 15:00 22 51 0 0,9 320 492 1012,5
59 Imperial Alto 03-05-2026 14:45 22,4 49 0 0,9 320 522 1012,6
58 Imperial Alto 03-05-2026 14:30 22,3 47 0 1,3 280 554 1012,6
57 Imperial Alto 03-05-2026 14:15 21,9 47 0 0,9 285 577 1012,8
56 Imperial Alto 03-05-2026 14:00 21,7 46 0 0,9 273 603 1012,8
55 Imperial Alto 03-05-2026 13:45 21,7 49 0 1,3 276 617 1013
54 Imperial Alto 03-05-2026 13:30 21,6 48 0 1,3 346 629 1013,1
53 Imperial Alto 03-05-2026 13:15 21,3 52 0 2,2 319 642 1013,2
52 Imperial Alto 03-05-2026 13:00 20,6 52 0 0 312 649 1013,2
51 Imperial Alto 03-05-2026 12:45 20,5 55 0 2,7 301 652 1013,4
50 Imperial Alto 03-05-2026 12:30 20,5 57 0 0,9 314 650 1013,5
49 Imperial Alto 03-05-2026 12:15 19,7 59 0 2,2 316 647 1013,7
48 Imperial Alto 03-05-2026 12:00 19,2 59 0 0,4 71 640 1013,9
47 Imperial Alto 03-05-2026 11:45 18,9 62 0 1,8 312 628 1014
46 Imperial Alto 03-05-2026 11:30 18,3 64 0 1,3 293 613 1014
45 Imperial Alto 03-05-2026 11:15 17,6 65 0 0,9 289 591 1014,2
44 Imperial Alto 03-05-2026 11:00 16,9 66 0 0 300 570 1014,3
43 Imperial Alto 03-05-2026 10:45 16,5 68 0 0 295 543 1014,5
42 Imperial Alto 03-05-2026 10:30 15,7 67 0 0 228 517 1014,5
41 Imperial Alto 03-05-2026 10:15 14,7 68 0 0 4 482 1014,4
40 Imperial Alto 03-05-2026 10:00 13,7 72 0 0 249 446 1014,5
39 Imperial Alto 03-05-2026 09:45 12,6 74 0 0 213 408 1014,4
38 Imperial Alto 03-05-2026 09:30 11,7 77 0 0 231 367 1014,4
37 Imperial Alto 03-05-2026 09:15 11,2 77 0 1,3 212 322 1014,4
36 Imperial Alto 03-05-2026 09:00 10,4 79 0 1,3 165 278 1014,4
35 Imperial Alto 03-05-2026 08:45 10,3 79 0 0 214 232 1014,4
34 Imperial Alto 03-05-2026 08:30 10 81 0 0 174 186 1014,5
33 Imperial Alto 03-05-2026 08:15 9,3 88 0 0 124 127 1014
32 Imperial Alto 03-05-2026 08:00 8,3 81 0 0 148 21 1013,7
31 Imperial Alto 03-05-2026 07:45 9,1 86 0 0 76 16 1013,4
30 Imperial Alto 03-05-2026 07:30 7,7 79 0 0 93 12 1013,3
29 Imperial Alto 03-05-2026 07:15 8,1 74 0 0 181 7 1012,8
28 Imperial Alto 03-05-2026 07:00 9,2 71 0 0 273 0 1012,7
27 Imperial Alto 03-05-2026 06:45 9,9 71 0 0 212 0 1012,5
26 Imperial Alto 03-05-2026 06:30 10,2 70 0 0 199 0 1012,2
25 Imperial Alto 03-05-2026 06:15 10,9 68 0 0 199 0 1012,1
24 Imperial Alto 03-05-2026 06:00 11,9 63 0 0 82 0 1011,8
23 Imperial Alto 03-05-2026 05:45 12,3 63 0 0 82 0 1011,6
22 Imperial Alto 03-05-2026 05:30 12,8 61 0 0 139 0 1011,3
21 Imperial Alto 03-05-2026 05:15 13,2 59 0 0 60 0 1011,3
20 Imperial Alto 03-05-2026 05:00 12,6 58 0 0 221 0 1011,3
19 Imperial Alto 03-05-2026 04:45 13,1 57 0 0 80 0 1011,1
18 Imperial Alto 03-05-2026 04:30 14,7 53 0 0 72 0 1011
17 Imperial Alto 03-05-2026 04:15 15,3 49 0 0 102 0 1010,9
16 Imperial Alto 03-05-2026 04:00 14,7 50 0 1,3 87 0 1010,8
15 Imperial Alto 03-05-2026 03:45 15,3 50 0 0 49 0 1010,7
14 Imperial Alto 03-05-2026 03:30 15,8 49 0 0 57 0 1010,8
13 Imperial Alto 03-05-2026 03:15 15,8 50 0 0 15 0 1010,9
12 Imperial Alto 03-05-2026 03:00 16,2 50 0 0 16 0 1010,7
11 Imperial Alto 03-05-2026 02:45 16,7 50 0 0 41 0 1010,7
10 Imperial Alto 03-05-2026 02:15 16,9 50 0 0 137 0 1010,7
9 Imperial Alto 03-05-2026 02:00 16,3 51 0 1,3 147 0 1010,9
8 Imperial Alto 03-05-2026 01:45 15,9 52 0 0 149 0 1011,1
7 Imperial Alto 03-05-2026 01:30 15,5 54 0 1,8 169 0 1011,3
6 Imperial Alto 03-05-2026 01:15 15,7 54 0 0 23 0 1011,4
5 Imperial Alto 03-05-2026 01:00 16,1 53 0 0 135 0 1011,5
4 Imperial Alto 03-05-2026 00:45 16,6 51 0 0 122 0 1011,4
3 Imperial Alto 03-05-2026 00:30 16,8 51 0 0 138 0 1011,2
2 Imperial Alto 03-05-2026 00:15 17,1 51 0 0 138 0 1011,2
1 Imperial Alto 03-05-2026 00:00 17,2 51 0 0 138 0 1011